Time;durP1;ratioP1;P1;durP2;ratioP2;P2;SDS_P1;SDS_P2;PMS_P1;PMS_P2;Temp;Humidity;BMP_temperature;BMP_pressure;BME280_temperature;BME280_humidity;BME280_pressure;Samples;Min_cycle;Max_cycle;Signal;HPM_P1;HPM_P2
2023/07/02 00:00:51;;;;;;;;;;;;;;;17.94;95.60;100563.16;10545203;28;19928;-63
2023/07/02 00:05:55;;;;;;;;;;;;;;;17.81;97.67;100550.16;10547952;28;19927;-63
2023/07/02 00:10:57;;;;;;;;;;;;;;;17.62;100.00;100556.31;10547826;28;20023;-63
2023/07/02 00:16:00;;;;;;;;;;;;;;;17.33;100.00;100558.94;10547611;28;20018;-64
2023/07/02 00:21:05;;;;;;;;;;;;;;;17.40;99.26;100560.03;10547334;28;19924;-63
2023/07/02 00:26:07;;;;;;;;;;;;;;;17.81;98.41;100548.34;10547423;28;19924;-63
2023/07/02 00:31:10;;;;;;;;;;;;;;;17.59;98.75;100540.69;10546981;28;20293;-63
2023/07/02 00:36:14;;;;;;;;;;;;;;;17.42;98.75;100561.59;10546527;28;20361;-63
2023/07/02 00:41:16;;;;;;;;;;;;;;;17.69;96.54;100568.00;10546468;28;19928;-63
2023/07/02 00:46:19;;;;;;;;;;;;;;;17.60;97.32;100571.47;10546345;28;19928;-63
2023/07/02 00:51:23;;;;;;;;;;;;;;;17.46;98.55;100570.06;10545060;28;19947;-63
2023/07/02 00:56:25;;;;;;;;;;;;;;;17.47;97.90;100571.75;10545923;28;19931;-63
2023/07/02 01:01:28;;;;;;;;;;;;;;;17.36;96.44;100571.88;10544831;28;19928;-63
2023/07/02 01:06:31;;;;;;;;;;;;;;;17.38;99.61;100580.50;10545710;28;19924;-63
2023/07/02 01:11:38;;;;;;;;;;;;;;;16.88;100.00;100610.47;10544934;28;19924;-63
2023/07/02 01:16:43;;;;;;;;;;;;;;;16.33;100.00;100614.19;10545162;28;19931;-63
2023/07/02 01:21:46;;;;;;;;;;;;;;;15.90;100.00;100633.66;10544089;28;19924;-63
2023/07/02 01:26:48;;;;;;;;;;;;;;;15.87;100.00;100627.75;10543680;28;20382;-63
2023/07/02 01:31:51;;;;;;;;;;;;;;;15.50;100.00;100630.72;10544687;28;19924;-63
2023/07/02 01:36:53;;;;;;;;;;;;;;;15.35;100.00;100640.75;10544360;28;19935;-63
2023/07/02 01:41:56;;;;;;;;;;;;;;;15.43;100.00;100633.03;10544196;28;19924;-63
2023/07/02 01:46:58;;;;;;;;;;;;;;;15.60;100.00;100621.97;10542785;28;19934;-63
2023/07/02 01:52:00;;;;;;;;;;;;;;;15.53;100.00;100634.00;10543790;28;20358;-62
2023/07/02 01:57:03;;;;;;;;;;;;;;;15.12;100.00;100635.50;10543632;28;19928;-62
2023/07/02 02:02:06;;;;;;;;;;;;;;;15.16;100.00;100639.56;10543325;28;19924;-62
2023/07/02 02:07:08;;;;;;;;;;;;;;;15.15;100.00;100637.06;10543318;28;20007;-62
2023/07/02 02:12:10;;;;;;;;;;;;;;;14.94;100.00;100631.66;10542995;28;19930;-62
2023/07/02 02:17:14;;;;;;;;;;;;;;;14.90;100.00;100624.97;10542720;28;19946;-63
2023/07/02 02:22:16;;;;;;;;;;;;;;;14.65;100.00;100640.03;10541724;28;20294;-63
2023/07/02 02:27:19;;;;;;;;;;;;;;;14.76;100.00;100636.56;10514366;22;20247;-70
2023/07/02 02:32:22;;;;;;;;;;;;;;;14.83;100.00;100641.25;10458908;28;19925;-70
2023/07/02 02:37:24;;;;;;;;;;;;;;;14.72;100.00;100643.03;10458624;28;20390;-70
2023/07/02 02:42:26;;;;;;;;;;;;;;;14.60;100.00;100645.66;10458526;28;20393;-70
2023/07/02 02:47:29;;;;;;;;;;;;;;;14.72;100.00;100651.78;10458374;28;19950;-70
2023/07/02 02:52:31;;;;;;;;;;;;;;;14.60;100.00;100647.47;10458372;28;20016;-69
2023/07/02 02:57:33;;;;;;;;;;;;;;;14.82;100.00;100642.19;10457021;28;20286;-69
2023/07/02 03:02:35;;;;;;;;;;;;;;;14.70;100.00;100647.59;10457949;28;20469;-69
2023/07/02 03:07:38;;;;;;;;;;;;;;;14.65;100.00;100654.03;10457739;28;19975;-69
2023/07/02 03:12:40;;;;;;;;;;;;;;;14.64;100.00;100652.38;10457425;28;20291;-69
2023/07/02 03:17:42;;;;;;;;;;;;;;;14.70;100.00;100673.94;10457141;28;19931;-68
2023/07/02 03:22:44;;;;;;;;;;;;;;;14.68;100.00;100676.69;10457277;28;19928;-68
2023/07/02 03:27:47;;;;;;;;;;;;;;;14.67;100.00;100683.75;10456883;28;19925;-69
2023/07/02 03:32:49;;;;;;;;;;;;;;;14.69;100.00;100686.25;10456796;28;19931;-68
2023/07/02 03:37:51;;;;;;;;;;;;;;;14.69;100.00;100696.81;10439233;28;20043;-69
2023/07/02 03:42:53;;;;;;;;;;;;;;;14.43;100.00;100696.97;10438971;28;20286;-70
2023/07/02 03:47:56;;;;;;;;;;;;;;;14.47;100.00;100702.84;10456619;28;19964;-69
2023/07/02 03:52:58;;;;;;;;;;;;;;;14.69;100.00;100702.06;10456748;28;19925;-70
2023/07/02 03:58:00;;;;;;;;;;;;;;;14.81;100.00;100709.06;10456324;28;20473;-70
2023/07/02 04:03:03;;;;;;;;;;;;;;;14.80;100.00;100702.09;10455100;28;19931;-69
2023/07/02 04:08:05;;;;;;;;;;;;;;;14.63;100.00;100718.38;10455011;28;19948;-70
2023/07/02 04:13:07;;;;;;;;;;;;;;;14.82;100.00;100718.63;10456092;28;20298;-70
2023/07/02 04:18:10;;;;;;;;;;;;;;;14.74;100.00;100726.28;10455001;28;19933;-70
2023/07/02 04:23:12;;;;;;;;;;;;;;;14.85;100.00;100714.94;10455982;28;19925;-69
2023/07/02 04:28:14;;;;;;;;;;;;;;;14.90;100.00;100720.69;10454538;28;20390;-70
2023/07/02 04:33:17;;;;;;;;;;;;;;;14.84;100.00;100723.78;10455764;28;20026;-69
2023/07/02 04:38:19;;;;;;;;;;;;;;;14.94;100.00;100732.66;10455834;28;19960;-69
2023/07/02 04:43:22;;;;;;;;;;;;;;;15.09;100.00;100735.09;10454589;28;19931;-69
2023/07/02 04:48:24;;;;;;;;;;;;;;;14.79;100.00;100741.75;10462710;28;20382;-70
2023/07/02 04:53:26;;;;;;;;;;;;;;;15.12;100.00;100732.22;10462765;28;20334;-69
2023/07/02 04:58:28;;;;;;;;;;;;;;;15.04;100.00;100738.06;10462526;28;20383;-69
2023/07/02 05:03:30;;;;;;;;;;;;;;;15.08;100.00;100738.69;10462389;28;20256;-70
2023/07/02 05:08:33;;;;;;;;;;;;;;;15.16;100.00;100744.19;10462269;28;19924;-67
2023/07/02 05:13:35;;;;;;;;;;;;;;;15.17;100.00;100746.72;10445225;28;19924;-67
2023/07/02 05:18:37;;;;;;;;;;;;;;;15.64;100.00;100753.69;10461713;28;19943;-67
2023/07/02 05:23:39;;;;;;;;;;;;;;;15.55;98.09;100748.16;10461554;28;19972;-66
2023/07/02 05:28:42;;;;;;;;;;;;;;;15.46;98.09;100763.88;10461400;28;19933;-66
2023/07/02 05:33:44;;;;;;;;;;;;;;;15.65;97.77;100766.75;10461216;28;19931;-66
2023/07/02 05:38:46;;;;;;;;;;;;;;;15.64;97.57;100770.34;10460117;28;19925;-67
2023/07/02 05:43:49;;;;;;;;;;;;;;;15.92;96.42;100771.66;10460808;28;19926;-67
2023/07/02 05:48:51;;;;;;;;;;;;;;;15.99;92.44;100772.00;10460607;28;20375;-67
2023/07/02 05:53:53;;;;;;;;;;;;;;;16.14;94.88;100780.47;10459483;28;19928;-66
2023/07/02 05:58:55;;;;;;;;;;;;;;;16.03;92.33;100796.34;10460135;28;20264;-66
2023/07/02 06:03:57;;;;;;;;;;;;;;;16.31;88.43;100792.31;10442622;28;19928;-67
2023/07/02 06:09:00;;;;;;;;;;;;;;;15.95;87.64;100796.94;10459993;28;19960;-67
2023/07/02 06:14:02;;;;;;;;;;;;;;;16.41;87.67;100801.16;10442003;28;20389;-67
2023/07/02 06:19:04;;;;;;;;;;;;;;;16.54;86.59;100803.63;10458207;28;20342;-67
2023/07/02 06:24:07;;;;;;;;;;;;;;;16.67;85.36;100798.16;10459217;28;19925;-67
2023/07/02 06:29:09;;;;;;;;;;;;;;;16.71;84.44;100805.72;10416571;28;19925;-67
2023/07/02 06:34:11;;;;;;;;;;;;;;;16.87;82.84;100799.19;10416468;28;20365;-67
2023/07/02 06:39:13;;;;;;;;;;;;;;;17.14;79.57;100808.41;10417610;28;19925;-67
2023/07/02 06:44:16;;;;;;;;;;;;;;;16.70;80.59;100819.06;10417433;28;19925;-67
2023/07/02 06:49:18;;;;;;;;;;;;;;;16.94;77.33;100813.56;10417118;28;19936;-67
2023/07/02 06:54:20;;;;;;;;;;;;;;;17.27;75.69;100828.38;10416896;28;20394;-67
2023/07/02 06:59:23;;;;;;;;;;;;;;;17.14;75.57;100822.44;10416761;28;19925;-67
2023/07/02 07:04:25;;;;;;;;;;;;;;;17.05;72.52;100845.22;10415352;28;19926;-67
2023/07/02 07:09:27;;;;;;;;;;;;;;;17.67;72.62;100849.72;10415884;28;20404;-67
2023/07/02 07:14:29;;;;;;;;;;;;;;;17.62;71.05;100844.84;10416285;28;20012;-67
2023/07/02 07:19:32;;;;;;;;;;;;;;;17.96;70.69;100858.66;10416077;28;20451;-67
2023/07/02 07:24:34;;;;;;;;;;;;;;;17.89;72.82;100864.66;10415992;28;19925;-67
2023/07/02 07:29:36;;;;;;;;;;;;;;;17.93;71.19;100874.81;10455441;28;19931;-67
2023/07/02 07:34:39;;;;;;;;;;;;;;;18.09;68.46;100863.72;10456781;28;20360;-68
2023/07/02 07:39:41;;;;;;;;;;;;;;;17.66;68.92;100869.25;10456960;28;19925;-67
2023/07/02 07:44:46;;;;;;;;;;;;;;;17.61;67.87;100878.41;10456796;28;19925;-67
2023/07/02 07:49:48;;;;;;;;;;;;;;;19.04;66.17;100872.91;10455470;28;19929;-67
2023/07/02 07:54:50;;;;;;;;;;;;;;;18.06;66.49;100871.94;10455509;28;19931;-67
2023/07/02 07:59:52;;;;;;;;;;;;;;;17.95;67.31;100878.16;10456346;28;19929;-67
2023/07/02 08:04:55;;;;;;;;;;;;;;;17.62;68.10;100879.28;10456422;28;19924;-67
2023/07/02 08:09:58;;;;;;;;;;;;;;;17.42;69.17;100881.81;10456343;28;20100;-67
2023/07/02 08:15:00;;;;;;;;;;;;;;;17.45;68.82;100886.84;10456062;28;19925;-67
2023/07/02 08:20:04;;;;;;;;;;;;;;;18.70;68.83;100897.16;10458500;28;19931;-67
2023/07/02 08:25:06;;;;;;;;;;;;;;;18.34;67.53;100893.34;10463775;28;19924;-67
2023/07/02 08:30:09;;;;;;;;;;;;;;;18.15;68.70;100899.44;10464005;28;19931;-67
2023/07/02 08:35:12;;;;;;;;;;;;;;;18.78;69.48;100904.44;10446057;28;19931;-67
2023/07/02 08:40:18;;;;;;;;;;;;;;;19.47;64.75;100908.75;10463243;28;19925;-67
2023/07/02 08:45:20;;;;;;;;;;;;;;;18.46;62.62;100915.25;10462031;28;19971;-67
2023/07/02 08:50:23;;;;;;;;;;;;;;;18.35;63.79;100919.72;10461789;28;19925;-67
2023/07/02 08:55:27;;;;;;;;;;;;;;;17.70;62.56;100934.19;10462766;28;20378;-68
2023/07/02 09:00:32;;;;;;;;;;;;;;;17.75;62.20;100935.50;10461362;28;20352;-67
2023/07/02 09:05:34;;;;;;;;;;;;;;;17.92;62.48;100933.22;10462394;28;19925;-67
2023/07/02 09:10:36;;;;;;;;;;;;;;;18.90;60.80;100937.84;10462225;28;19931;-67
2023/07/02 09:15:39;;;;;;;;;;;;;;;18.25;61.38;100941.88;10462197;28;19925;-67
2023/07/02 09:20:41;;;;;;;;;;;;;;;18.60;61.88;100930.78;10460513;28;20273;-67
2023/07/02 09:25:44;;;;;;;;;;;;;;;19.31;60.45;100935.03;10461411;28;20361;-67
2023/07/02 09:30:53;;;;;;;;;;;;;;;20.08;59.42;100945.63;10461298;28;20012;-67
2023/07/02 09:35:56;;;;;;;;;;;;;;;21.51;55.34;100928.94;10459994;28;20015;-68
2023/07/02 09:40:58;;;;;;;;;;;;;;;20.96;55.85;100920.19;10460970;28;20383;-68
2023/07/02 09:46:01;;;;;;;;;;;;;;;20.08;55.02;100933.16;10459646;28;20429;-68
2023/07/02 09:51:03;;;;;;;;;;;;;;;21.29;52.81;100922.28;10460758;28;20383;-68
2023/07/02 09:56:07;;;;;;;;;;;;;;;22.14;52.83;100918.94;10460533;28;19931;-67
2023/07/02 10:01:09;;;;;;;;;;;;;;;22.78;52.03;100919.31;10459028;28;20371;-67
2023/07/02 10:06:11;;;;;;;;;;;;;;;23.07;49.23;100926.88;10442585;28;19924;-68
2023/07/02 10:11:13;;;;;;;;;;;;;;;24.14;48.94;100931.16;10459830;28;19968;-68
2023/07/02 10:16:16;;;;;;;;;;;;;;;23.06;49.49;100935.88;10458734;28;19924;-68
2023/07/02 10:21:18;;;;;;;;;;;;;;;22.67;49.95;100932.97;10459579;28;19936;-68
2023/07/02 10:26:20;;;;;;;;;;;;;;;21.57;50.72;100941.66;10457918;28;19964;-68
2023/07/02 10:31:23;;;;;;;;;;;;;;;21.37;50.35;100933.00;10459033;28;19971;-68
2023/07/02 10:36:25;;;;;;;;;;;;;;;22.87;50.20;100934.31;10458775;28;19929;-68
2023/07/02 10:41:28;;;;;;;;;;;;;;;22.68;50.21;100931.94;10458218;28;20023;-68
2023/07/02 10:46:30;;;;;;;;;;;;;;;23.83;46.99;100931.97;10440786;28;19924;-68
2023/07/02 10:51:33;;;;;;;;;;;;;;;24.65;46.77;100939.63;10458259;28;20361;-67
2023/07/02 10:56:35;;;;;;;;;;;;;;;24.66;45.05;100944.81;10458253;28;19924;-67
2023/07/02 11:01:37;;;;;;;;;;;;;;;23.62;44.34;100941.34;10440181;28;20359;-67
2023/07/02 11:06:40;;;;;;;;;;;;;;;23.74;46.61;100939.16;10457952;28;20015;-67
2023/07/02 11:12:08;;;;;;;;;;;;;;;25.62;43.57;100932.81;10457437;28;20295;-67
2023/07/02 11:17:10;;;;;;;;;;;;;;;25.29;42.34;100925.94;10453836;28;20371;-67
2023/07/02 11:22:12;;;;;;;;;;;;;;;24.13;43.58;100938.38;10457059;28;20447;-67
2023/07/02 11:27:20;;;;;;;;;;;;;;;22.47;46.00;100951.09;10456744;28;19939;-74
2023/07/02 11:32:22;;;;;;;;;;;;;;;23.28;45.46;100938.88;10455845;28;19925;-74
2023/07/02 11:37:25;;;;;;;;;;;;;;;22.26;48.23;100949.66;10457042;28;19947;-73
2023/07/02 11:42:29;;;;;;;;;;;;;;;22.51;48.92;100957.75;10455710;28;20098;-74
2023/07/02 11:47:31;;;;;;;;;;;;;;;21.47;48.62;100955.06;10456687;28;19925;-75
2023/07/02 11:52:34;;;;;;;;;;;;;;;22.26;47.68;100947.00;10456723;28;20016;-76
2023/07/02 11:57:36;;;;;;;;;;;;;;;23.18;45.45;100945.22;10463934;28;20291;-75
2023/07/02 12:02:38;;;;;;;;;;;;;;;22.22;45.84;100942.97;10464955;28;19929;-74
2023/07/02 12:07:40;;;;;;;;;;;;;;;21.43;46.41;100948.31;10447043;28;19925;-74
2023/07/02 12:12:42;;;;;;;;;;;;;;;21.55;47.48;100954.25;10463333;28;20281;-70
2023/07/02 12:17:45;;;;;;;;;;;;;;;22.83;43.98;100951.69;10463154;28;19931;-74
2023/07/02 12:22:47;;;;;;;;;;;;;;;23.47;42.38;100956.38;10464203;28;19984;-74
2023/07/02 12:27:49;;;;;;;;;;;;;;;23.68;43.53;100961.19;10463882;28;19924;-74
2023/07/02 12:32:51;;;;;;;;;;;;;;;22.61;45.79;100959.31;10446034;28;19925;-76
2023/07/02 12:37:54;;;;;;;;;;;;;;;25.41;40.33;100945.09;10463590;28;19947;-68
2023/07/02 12:42:56;;;;;;;;;;;;;;;24.95;40.98;100953.13;10463438;28;19925;-68
2023/07/02 12:47:58;;;;;;;;;;;;;;;25.19;42.09;100958.31;10463000;28;19928;-68
2023/07/02 12:53:00;;;;;;;;;;;;;;;24.49;41.85;100964.59;10462780;28;20355;-70
2023/07/02 12:58:03;;;;;;;;;;;;;;;24.44;40.83;100978.53;10462739;28;19924;-70
2023/07/02 13:03:07;;;;;;;;;;;;;;;25.54;41.03;100965.91;10462696;28;19924;-69
2023/07/02 13:08:09;;;;;;;;;;;;;;;24.64;40.97;100968.22;10461532;28;19925;-70
2023/07/02 13:13:12;;;;;;;;;;;;;;;24.36;41.16;100980.41;10462050;28;20443;-69
2023/07/02 13:18:24;;;;;;;;;;;;;;;26.30;41.42;100976.50;10461866;28;19925;-69
2023/07/02 13:23:26;;;;;;;;;;;;;;;25.58;40.40;100959.16;10461581;28;20364;-69
2023/07/02 13:28:28;;;;;;;;;;;;;;;24.83;40.39;100972.31;10461556;28;20296;-70
2023/07/02 13:33:31;;;;;;;;;;;;;;;23.95;39.96;100977.88;10461285;28;19932;-69
2023/07/02 13:38:33;;;;;;;;;;;;;;;25.49;40.57;100989.75;10443923;28;19925;-68
2023/07/02 13:43:35;;;;;;;;;;;;;;;24.15;41.11;100983.66;10459833;28;19931;-68
2023/07/02 13:48:37;;;;;;;;;;;;;;;26.45;39.66;100981.84;10460768;28;19925;-69
2023/07/02 13:53:40;;;;;;;;;;;;;;;22.81;42.19;100980.34;10460535;28;20402;-68
2023/07/02 13:58:47;;;;;;;;;;;;;;;25.13;41.61;100985.84;10460406;28;19925;-69
2023/07/02 14:03:49;;;;;;;;;;;;;;;23.39;44.91;100997.31;10459125;28;19925;-69
2023/07/02 14:08:52;;;;;;;;;;;;;;;24.19;43.25;100995.69;10459888;28;19933;-69
2023/07/02 14:13:54;;;;;;;;;;;;;;;24.29;40.76;101005.19;10459698;28;19925;-68
2023/07/02 14:18:57;;;;;;;;;;;;;;;23.76;44.56;100984.41;10440903;28;19931;-69
2023/07/02 14:23:59;;;;;;;;;;;;;;;24.27;44.21;101009.84;10458118;28;19925;-69
2023/07/02 14:29:02;;;;;;;;;;;;;;;22.99;45.32;100997.06;10457784;28;19978;-69
2023/07/02 14:34:04;;;;;;;;;;;;;;;25.13;41.22;100991.19;10457820;28;20035;-69
2023/07/02 14:39:06;;;;;;;;;;;;;;;24.26;41.79;100989.47;10458970;28;19931;-69
2023/07/02 14:44:08;;;;;;;;;;;;;;;23.48;45.01;100998.97;10573828;22;19924;-70
2023/07/02 14:49:10;;;;;;;;;;;;;;;23.81;43.31;100996.25;10566143;28;20010;-70
2023/07/02 14:54:13;;;;;;;;;;;;;;;24.03;41.89;100989.38;10583670;28;19924;-68
2023/07/02 14:59:15;;;;;;;;;;;;;;;25.25;41.98;100993.44;10583422;28;19931;-70
2023/07/02 15:04:17;;;;;;;;;;;;;;;25.13;41.59;100979.63;10583604;28;19938;-71
2023/07/02 15:09:20;;;;;;;;;;;;;;;23.44;42.27;100980.78;10583083;28;20006;-70
2023/07/02 15:14:22;;;;;;;;;;;;;;;24.91;40.29;100978.63;10565186;28;19924;-69
2023/07/02 15:19:24;;;;;;;;;;;;;;;24.83;41.30;100975.00;10564783;28;19934;-68
2023/07/02 15:24:27;;;;;;;;;;;;;;;25.20;40.83;100983.25;10582641;28;20397;-69
2023/07/02 15:29:29;;;;;;;;;;;;;;;24.91;41.57;100982.13;10582095;28;20119;-69
2023/07/02 15:34:31;;;;;;;;;;;;;;;23.48;40.02;100984.78;10582430;28;19934;-70
2023/07/02 15:39:33;;;;;;;;;;;;;;;23.50;41.86;100978.28;10582166;28;20282;-69
2023/07/02 15:44:38;;;;;;;;;;;;;;;22.88;42.32;100965.38;10581117;28;20414;-69
2023/07/02 15:49:40;;;;;;;;;;;;;;;22.46;44.75;100976.94;10563946;28;19927;-70
2023/07/02 15:54:42;;;;;;;;;;;;;;;22.14;44.75;100981.13;10581957;28;20441;-67
2023/07/02 15:59:44;;;;;;;;;;;;;;;22.49;45.11;100984.59;10581743;28;19930;-69
2023/07/02 16:04:47;;;;;;;;;;;;;;;23.00;44.52;100973.91;10581668;28;20408;-68
2023/07/02 16:09:49;;;;;;;;;;;;;;;22.26;44.20;100981.66;10563458;28;19931;-69
2023/07/02 16:14:51;;;;;;;;;;;;;;;22.27;44.02;100972.66;10581741;28;19924;-68
2023/07/02 16:19:54;;;;;;;;;;;;;;;22.03;45.02;100982.22;10581482;28;19930;-67
2023/07/02 16:24:56;;;;;;;;;;;;;;;22.66;44.85;100974.00;10581372;28;19924;-68
2023/07/02 16:29:58;;;;;;;;;;;;;;;22.30;45.60;100971.53;10581506;28;20010;-67
2023/07/02 16:35:00;;;;;;;;;;;;;;;22.15;46.17;100976.63;10581157;28;20336;-67
2023/07/02 16:40:03;;;;;;;;;;;;;;;22.13;46.04;100970.63;10581938;28;19930;-68
2023/07/02 16:45:06;;;;;;;;;;;;;;;22.53;45.46;100967.28;10545415;28;19946;-67
2023/07/02 16:50:08;;;;;;;;;;;;;;;22.08;46.73;100966.56;10546423;28;19924;-68
2023/07/02 16:55:11;;;;;;;;;;;;;;;22.50;44.88;100956.13;10546576;28;19928;-68
2023/07/02 17:00:13;;;;;;;;;;;;;;;21.96;46.35;100949.19;10545941;28;20385;-67
2023/07/02 17:05:15;;;;;;;;;;;;;;;21.65;46.76;100957.69;10545833;28;19946;-68
2023/07/02 17:10:17;;;;;;;;;;;;;;;21.35;47.03;100956.28;10545824;28;19928;-68
2023/07/02 17:15:20;;;;;;;;;;;;;;;21.69;46.81;100948.38;10544550;28;19928;-67
2023/07/02 17:20:22;;;;;;;;;;;;;;;21.00;48.11;100957.13;10545241;28;19924;-67
2023/07/02 17:25:25;;;;;;;;;;;;;;;20.86;48.49;100955.84;10545112;28;20371;-67
2023/07/02 17:30:27;;;;;;;;;;;;;;;20.22;50.22;100959.28;10544909;28;20396;-67
2023/07/02 17:35:29;;;;;;;;;;;;;;;20.56;49.75;100937.38;10526964;28;19935;-67
2023/07/02 17:40:32;;;;;;;;;;;;;;;20.39;49.83;100943.50;10546037;28;20396;-68
2023/07/02 17:45:35;;;;;;;;;;;;;;;20.57;49.68;100940.88;10586555;28;19924;-67
2023/07/02 17:50:37;;;;;;;;;;;;;;;20.66;50.91;100945.34;10586073;28;20006;-67
2023/07/02 17:55:39;;;;;;;;;;;;;;;20.24;50.63;100940.53;10586070;28;19937;-67
2023/07/02 18:00:41;;;;;;;;;;;;;;;20.28;50.54;100933.09;10585709;28;19923;-68
2023/07/02 18:05:44;;;;;;;;;;;;;;;19.87;51.36;100944.03;10585870;28;20022;-67
2023/07/02 18:10:49;;;;;;;;;;;;;;;20.05;52.34;100936.13;10567549;28;19924;-67
2023/07/02 18:15:53;;;;;;;;;;;;;;;19.66;52.47;100931.75;10585588;28;19927;-68
2023/07/02 18:20:55;;;;;;;;;;;;;;;19.66;52.66;100933.56;10567258;28;20014;-67
2023/07/02 18:26:03;;;;;;;;;;;;;;;20.00;52.27;100928.56;10566796;28;20372;-68
2023/07/02 18:31:05;;;;;;;;;;;;;;;20.04;52.25;100934.47;10584694;28;19924;-67
2023/07/02 18:36:11;;;;;;;;;;;;;;;20.21;52.35;100927.53;10566360;28;19923;-67
2023/07/02 18:41:13;;;;;;;;;;;;;;;19.93;52.86;100931.97;10583889;28;20282;-68
2023/07/02 18:46:16;;;;;;;;;;;;;;;19.89;53.15;100935.91;10583912;28;20390;-67
2023/07/02 18:51:18;;;;;;;;;;;;;;;19.53;54.47;100936.53;10583708;28;20378;-68
2023/07/02 18:56:20;;;;;;;;;;;;;;;19.47;54.67;100932.63;10565676;28;19927;-68
2023/07/02 19:01:22;;;;;;;;;;;;;;;19.41;54.56;100933.19;10583346;28;20374;-68
2023/07/02 19:06:25;;;;;;;;;;;;;;;19.53;55.22;100933.03;10564611;28;19923;-68
2023/07/02 19:11:28;;;;;;;;;;;;;;;19.41;55.54;100927.06;10583172;28;20010;-68
2023/07/02 19:16:30;;;;;;;;;;;;;;;18.95;56.28;100926.81;10583124;28;19963;-68
2023/07/02 19:21:34;;;;;;;;;;;;;;;19.17;56.29;100914.25;10564684;28;19923;-68
2023/07/02 19:26:36;;;;;;;;;;;;;;;18.91;57.03;100914.78;10582860;28;19924;-69
2023/07/02 19:31:44;;;;;;;;;;;;;;;18.80;57.39;100918.41;10582443;28;19923;-68
2023/07/02 19:36:47;;;;;;;;;;;;;;;19.09;57.13;100914.94;10582341;28;19924;-68
2023/07/02 19:41:50;;;;;;;;;;;;;;;19.00;57.15;100918.44;10564168;28;19972;-68
2023/07/02 19:46:52;;;;;;;;;;;;;;;18.85;57.41;100923.31;10582031;28;19978;-68
2023/07/02 19:51:54;;;;;;;;;;;;;;;18.89;57.69;100914.94;10582020;28;19923;-68
2023/07/02 19:56:57;;;;;;;;;;;;;;;18.78;58.51;100927.44;10581803;28;19946;-68
2023/07/02 20:02:01;;;;;;;;;;;;;;;18.70;58.71;100933.47;10563908;28;20329;-68
2023/07/02 20:07:03;;;;;;;;;;;;;;;18.55;59.03;100939.16;10581726;28;19924;-68
2023/07/02 20:12:06;;;;;;;;;;;;;;;18.83;58.43;100930.56;10563519;28;19928;-68
2023/07/02 20:17:09;;;;;;;;;;;;;;;18.65;59.29;100938.34;10588078;28;19931;-68
2023/07/02 20:22:12;;;;;;;;;;;;;;;18.50;59.06;100932.59;10589702;28;19928;-68
2023/07/02 20:27:18;;;;;;;;;;;;;;;18.54;59.76;100937.50;10571692;28;19971;-68
2023/07/02 20:32:20;;;;;;;;;;;;;;;18.38;60.07;100937.16;10572097;28;20101;-68
2023/07/02 20:37:23;;;;;;;;;;;;;;;18.25;60.26;100941.88;10589212;28;19923;-68
2023/07/02 20:42:29;;;;;;;;;;;;;;;18.36;60.45;100937.31;10588704;28;20366;-68
2023/07/02 20:47:31;;;;;;;;;;;;;;;18.48;59.87;100932.72;10588842;28;19946;-68
2023/07/02 20:52:33;;;;;;;;;;;;;;;18.00;62.47;100936.91;10570588;28;19930;-68
2023/07/02 20:57:35;;;;;;;;;;;;;;;18.11;62.04;100935.13;10588523;28;20374;-68
2023/07/02 21:02:38;;;;;;;;;;;;;;;18.15;61.94;100933.88;10570342;28;19924;-68
2023/07/02 21:07:41;;;;;;;;;;;;;;;18.18;62.44;100931.81;10588016;28;20314;-68
2023/07/02 21:12:43;;;;;;;;;;;;;;;18.15;63.35;100936.53;10587931;28;19930;-68
2023/07/02 21:17:48;;;;;;;;;;;;;;;18.01;63.92;100935.09;10587757;28;19929;-68
2023/07/02 21:22:51;;;;;;;;;;;;;;;18.23;62.70;100933.22;10569288;28;20248;-68
2023/07/02 21:27:53;;;;;;;;;;;;;;;17.97;64.17;100931.00;10568643;28;19930;-68
2023/07/02 21:32:56;;;;;;;;;;;;;;;17.77;64.36;100932.69;10587120;28;19955;-68
2023/07/02 21:37:58;;;;;;;;;;;;;;;17.69;65.64;100935.19;10568791;28;19969;-68
2023/07/02 21:43:00;;;;;;;;;;;;;;;17.99;65.19;100929.94;10586463;28;20097;-68
2023/07/02 21:48:03;;;;;;;;;;;;;;;17.91;64.49;100935.03;10568293;28;19930;-68
2023/07/02 21:53:05;;;;;;;;;;;;;;;17.90;64.65;100936.00;10586290;28;20332;-68
2023/07/02 21:58:07;;;;;;;;;;;;;;;17.89;65.19;100937.00;10586072;28;19924;-68
2023/07/02 22:03:09;;;;;;;;;;;;;;;17.94;65.67;100936.59;10585998;28;19931;-69
2023/07/02 22:08:11;;;;;;;;;;;;;;;17.90;65.63;100929.88;10585598;28;20383;-68
2023/07/02 22:13:14;;;;;;;;;;;;;;;18.07;65.65;100931.91;10585360;28;20255;-68
2023/07/02 22:18:17;;;;;;;;;;;;;;;18.04;66.38;100932.19;10585254;28;19946;-68
2023/07/02 22:23:20;;;;;;;;;;;;;;;17.90;66.17;100919.28;10584920;28;20320;-68
2023/07/02 22:28:22;;;;;;;;;;;;;;;18.06;65.64;100924.94;10585034;28;19930;-68
2023/07/02 22:33:25;;;;;;;;;;;;;;;18.34;65.10;100917.19;10584581;28;20293;-68
2023/07/02 22:38:27;;;;;;;;;;;;;;;18.25;64.43;100925.97;10583494;28;19924;-68
2023/07/02 22:43:29;;;;;;;;;;;;;;;17.87;66.84;100916.88;10565843;28;19923;-68
2023/07/02 22:48:31;;;;;;;;;;;;;;;18.02;65.01;100912.91;10584026;28;20273;-68
2023/07/02 22:53:33;;;;;;;;;;;;;;;17.65;66.38;100910.75;10584027;28;19924;-69
2023/07/02 22:58:36;;;;;;;;;;;;;;;17.94;65.51;100908.28;10565532;28;19930;-68
2023/07/02 23:03:38;;;;;;;;;;;;;;;18.07;65.10;100907.22;10583604;28;19923;-68
2023/07/02 23:08:40;;;;;;;;;;;;;;;17.52;64.83;100907.50;10565411;28;19934;-68
2023/07/02 23:13:43;;;;;;;;;;;;;;;17.69;65.01;100904.25;10583146;28;19938;-68
2023/07/02 23:18:45;;;;;;;;;;;;;;;17.55;64.63;100896.63;10565074;28;19930;-68
2023/07/02 23:23:47;;;;;;;;;;;;;;;17.51;65.12;100897.88;10582607;28;20385;-68
2023/07/02 23:28:56;;;;;;;;;;;;;;;17.77;63.39;100887.69;10582840;28;19930;-68
2023/07/02 23:33:58;;;;;;;;;;;;;;;17.16;63.80;100880.53;10582485;28;19946;-69
2023/07/02 23:39:00;;;;;;;;;;;;;;;17.42;64.30;100881.81;10564512;28;19924;-68
2023/07/02 23:44:03;;;;;;;;;;;;;;;17.30;63.37;100874.06;10563970;28;19924;-69
2023/07/02 23:49:05;;;;;;;;;;;;;;;17.37;63.81;100873.44;10563746;28;19924;-69
2023/07/02 23:54:07;;;;;;;;;;;;;;;17.41;63.93;100866.06;10582154;28;19931;-68
2023/07/02 23:59:09;;;;;;;;;;;;;;;17.34;64.27;100878.13;10581963;28;19934;-68
